Abel Figueiredo, Brazil
Current Conditions -  °F | °C
As of 6:00 AM on Thursday 27 Nov 2014 (Local Time) from SBMA Reporting Station
Thunderstorm Thunderstorm  
Wind Chill: 77°   Ceiling: 7000
Heat Index: 78°   Visibility: 6mi
Dew Point: 75°   Wind: 7mph
Humidity: 94%   Direction: 70°ENE
Pressure: NA   Gusts: NA
Location:  4.95°S, 48.39°W
Report Text: SBMA 270900Z 07006KT 9999 -TSRA FEW010 SCT025CB OVC070 25/24 Q1009
Loading
Personal Weather Stations






























Interactive Weather Map New forecast layout! Learn more

10-Day Weather Forecast

Advertisements
Track Severe Weather on mobile